createdAt,value
2018-08-13T00:05:02.478Z,11.40
2018-08-13T00:15:03.742Z,16.67
2018-08-13T00:25:05.025Z,12.97
2018-08-13T00:35:06.291Z,12.27
2018-08-13T00:45:08.362Z,10.37
2018-08-13T00:55:09.626Z,10.60
2018-08-13T01:05:10.874Z,11.63
2018-08-13T01:15:12.287Z,12.03
2018-08-13T01:25:13.574Z,13.60
2018-08-13T01:35:14.860Z,13.43
2018-08-13T01:45:16.270Z,14.03
2018-08-13T01:55:17.565Z,13.60
2018-08-13T02:05:18.845Z,14.43
2018-08-13T02:15:20.147Z,11.37
2018-08-13T02:25:21.438Z,17.17
2018-08-13T02:35:22.692Z,15.07
2018-08-13T02:45:23.943Z,13.80
2018-08-13T02:55:25.230Z,13.13
2018-08-13T03:05:26.497Z,12.57
2018-08-13T03:15:27.763Z,10.83
2018-08-13T03:25:29.027Z,16.33
2018-08-13T03:35:30.293Z,13.90
2018-08-13T03:45:31.578Z,13.67
2018-08-13T03:55:32.979Z,13.17
2018-08-13T04:05:34.251Z,15.67
2018-08-13T04:15:36.288Z,13.27
2018-08-13T04:25:38.354Z,13.10
2018-08-13T04:35:40.361Z,13.70
2018-08-13T04:45:41.833Z,13.23
2018-08-13T04:55:43.110Z,16.57
2018-08-13T05:05:44.358Z,14.17
2018-08-13T05:15:46.439Z,16.93
2018-08-13T05:25:47.699Z,15.27
2018-08-13T05:35:49.212Z,13.87
2018-08-13T05:45:50.768Z,12.33
2018-08-13T05:55:52.806Z,12.20
2018-08-13T06:05:54.087Z,10.77
2018-08-13T06:15:55.661Z,10.60
2018-08-13T06:25:57.137Z,11.00
2018-08-13T06:35:58.555Z,10.97
2018-08-13T06:46:00.561Z,9.33
2018-08-13T06:56:02.166Z,12.70
2018-08-13T07:06:03.461Z,11.40
2018-08-13T07:16:04.727Z,12.77
2018-08-13T07:26:06.040Z,10.50
2018-08-13T07:36:07.333Z,10.33
2018-08-13T07:46:08.624Z,12.50
2018-08-13T07:56:10.073Z,9.00
2018-08-13T08:06:11.336Z,7.85
2018-08-13T08:16:12.658Z,6.97
2018-08-13T08:26:13.905Z,7.20
2018-08-13T08:36:15.330Z,7.07
2018-08-13T08:46:16.651Z,8.10
2018-08-13T08:56:18.716Z,7.85
2018-08-13T09:16:27.062Z,7.00
2018-08-13T09:26:28.329Z,6.22
2018-08-13T09:36:29.614Z,6.93
2018-08-13T09:46:31.678Z,6.62
2018-08-13T09:56:32.948Z,6.80
2018-08-13T10:06:34.244Z,8.45
2018-08-13T10:16:35.507Z,6.87
2018-08-13T10:26:36.788Z,7.53
2018-08-13T10:36:38.844Z,7.15
2018-08-13T10:46:45.826Z,8.05
2018-08-13T10:56:47.076Z,7.60
2018-08-13T11:06:48.342Z,7.50
2018-08-13T11:16:50.368Z,7.87
2018-08-13T11:26:51.630Z,10.23
2018-08-13T11:36:52.903Z,7.55
2018-08-13T11:46:54.159Z,7.93
2018-08-13T11:56:55.423Z,7.70
2018-08-13T12:06:56.687Z,7.20
2018-08-13T12:16:57.956Z,7.78
2018-08-13T12:26:59.222Z,8.55
2018-08-13T12:37:01.238Z,8.07
2018-08-13T12:47:03.255Z,7.93
2018-08-13T12:57:05.297Z,7.47
2018-08-13T13:07:06.548Z,10.50
2018-08-13T13:17:08.616Z,8.60
2018-08-13T13:27:09.930Z,7.53
2018-08-13T13:37:11.186Z,8.88
2018-08-13T13:47:12.471Z,7.95
2018-08-13T13:57:13.813Z,6.55
2018-08-13T14:07:15.805Z,6.90
2018-08-13T14:17:17.325Z,7.95
2018-08-13T14:27:18.638Z,7.32
2018-08-13T14:37:19.941Z,8.13
2018-08-13T14:47:21.186Z,8.05
2018-08-13T14:57:23.359Z,8.88
2018-08-13T15:07:24.643Z,8.75
2018-08-13T15:17:25.921Z,8.55
2018-08-13T15:27:27.374Z,11.12
2018-08-13T15:37:28.570Z,8.75
2018-08-13T15:47:29.842Z,8.20
2018-08-13T15:57:31.119Z,7.80
2018-08-13T16:07:32.434Z,9.00
2018-08-13T16:17:33.701Z,8.40
2018-08-13T16:27:34.952Z,10.50
2018-08-13T16:37:36.224Z,8.93
2018-08-13T16:47:37.481Z,9.10
2018-08-13T16:57:38.745Z,9.55
2018-08-13T17:07:41.231Z,9.60
2018-08-13T17:17:42.549Z,10.25
2018-08-13T17:27:43.863Z,9.50
2018-08-13T17:37:45.114Z,10.95
2018-08-13T17:47:46.426Z,10.25
2018-08-13T17:57:47.730Z,11.83
2018-08-13T18:07:49.017Z,14.57
2018-08-13T18:17:50.272Z,12.00
2018-08-13T18:27:51.530Z,14.07
2018-08-13T18:37:53.580Z,11.77
2018-08-13T18:47:54.828Z,11.43
2018-08-13T18:57:56.091Z,12.13
2018-08-13T19:07:57.383Z,10.37
2018-08-13T19:17:58.702Z,10.53
2018-08-13T19:27:59.982Z,11.20
2018-08-13T19:38:01.240Z,13.02
2018-08-13T19:48:03.290Z,13.93
2018-08-13T19:58:05.353Z,11.37
2018-08-13T20:08:06.679Z,12.37
2018-08-13T20:18:07.911Z,14.13
2018-08-13T20:28:09.170Z,12.80
2018-08-13T20:38:10.406Z,10.87
2018-08-13T20:48:11.646Z,12.17
2018-08-13T20:58:13.667Z,12.03
2018-08-13T21:08:15.703Z,11.43
2018-08-13T21:18:16.963Z,12.67
2018-08-13T21:28:19.001Z,14.43
2018-08-13T21:38:20.280Z,11.77
2018-08-13T21:48:22.321Z,10.77
2018-08-13T21:58:23.596Z,12.17
2018-08-13T22:08:24.878Z,14.33
2018-08-13T22:18:26.907Z,14.53
2018-08-13T22:28:28.147Z,11.53
2018-08-13T22:38:29.414Z,13.40
2018-08-13T22:48:30.668Z,12.50
2018-08-13T22:58:32.671Z,13.27
2018-08-13T23:08:33.966Z,11.87
2018-08-13T23:18:35.209Z,16.80
2018-08-13T23:28:36.500Z,14.67
2018-08-13T23:38:37.777Z,15.60
2018-08-13T23:48:39.837Z,12.07
2018-08-13T23:58:41.125Z,10.37
